Turtletown, Tennessee
Current Conditions -  °F | °C
As of 4:15 PM on Monday 24 Nov 2014 (Local Time) from KMMI Reporting Station
Clear Clear  
Wind Chill: 66°   Ceiling: Unl
Heat Index: 66°   Visibility: 10mi
Dew Point: 41°   Wind: 10mph
Humidity: 40%   Direction: 250°WSW
Pressure: 29.81"   Gusts: NA
Location:  35.13°N, 84.35°W
Report Text: KMMI 242115Z AUTO 25009KT 10SM CLR 19/05 A2981 RMK
Loading
Personal Weather Stations






























Interactive Weather Map New forecast layout! Learn more

10-Day Weather Forecast

Advertisements
Track Severe Weather on mobile